createdAt,value
2017-04-13T00:00:49.167Z,81.6
2017-04-13T00:01:51.380Z,80.6
2017-04-13T00:02:22.019Z,80.6
2017-04-13T00:03:56.821Z,82
2017-04-13T00:04:59.400Z,80.4
2017-04-13T00:06:01.752Z,81.4
2017-04-13T00:07:04.604Z,81.7
2017-04-13T00:08:07.456Z,81.1
2017-04-13T00:09:10.104Z,81.4
2017-04-13T00:10:12.450Z,80.9
2017-04-13T00:11:15.302Z,81.2
2017-04-13T00:12:17.643Z,80.6
2017-04-13T00:13:20.195Z,81
2017-04-13T00:14:23.720Z,81.4
2017-04-13T00:16:28.470Z,80.9
2017-04-13T00:17:31.317Z,80.5
2017-04-13T00:18:33.665Z,80.6
2017-04-13T00:19:36.765Z,81.2
2017-04-13T00:20:39.116Z,80.7
2017-04-13T00:21:41.965Z,80.7
2017-04-13T00:22:44.312Z,80.1
2017-04-13T00:23:47.167Z,81
2017-04-13T00:24:49.818Z,81.1
2017-04-13T00:25:52.168Z,81.8
2017-04-13T00:26:55.020Z,80.5
2017-04-13T00:27:57.364Z,80.4
2017-04-13T00:30:03.377Z,81
2017-04-13T00:31:05.592Z,81.4
2017-04-13T00:32:07.932Z,81.4
2017-04-13T00:33:10.780Z,81.7
2017-04-13T00:34:13.629Z,81.6
2017-04-13T00:35:16.279Z,81
2017-04-13T00:36:18.631Z,81.9
2017-04-13T00:37:21.489Z,82
2017-04-13T00:38:23.837Z,82.1
2017-04-13T00:39:26.690Z,81.3
2017-04-13T00:40:29.845Z,81.4
2017-04-13T00:42:34.597Z,82.1
2017-04-13T00:43:37.444Z,81.1
2017-04-13T00:44:39.787Z,81.7
2017-04-13T00:45:42.942Z,82
2017-04-13T00:46:45.290Z,81.6
2017-04-13T00:47:47.637Z,81.4
2017-04-13T00:48:50.486Z,81.5
2017-04-13T00:49:53.344Z,81.2
2017-04-13T00:50:55.944Z,81.9
2017-04-13T00:51:58.297Z,80.8
2017-04-13T00:53:01.016Z,81.1
2017-04-13T00:54:03.867Z,80.9
2017-04-13T00:55:06.214Z,80.8
2017-04-13T00:56:09.243Z,81.7
2017-04-13T00:57:11.591Z,81.6
2017-04-13T00:58:14.443Z,81.9
2017-04-13T00:59:16.787Z,81.1
2017-04-13T01:00:20.195Z,81.1
2017-04-13T01:01:22.346Z,81.9
2017-04-13T01:02:24.690Z,81.7
2017-04-13T01:03:27.540Z,81.5
2017-04-13T01:04:30.390Z,81.5
2017-04-13T01:05:32.737Z,80.9
2017-04-13T01:06:35.838Z,81.1
2017-04-13T01:07:38.186Z,80.9
2017-04-13T01:08:40.403Z,81.4
2017-04-13T01:09:43.488Z,81.5
2017-04-13T01:11:48.909Z,80
2017-04-13T01:12:51.254Z,81.5
2017-04-13T01:13:53.964Z,81.3
2017-04-13T01:14:56.679Z,81
2017-04-13T01:15:59.087Z,80.7
2017-04-13T01:17:02.104Z,80.4
2017-04-13T01:18:04.496Z,80.3
2017-04-13T01:19:07.396Z,80.7
2017-04-13T01:20:09.742Z,80.5
2017-04-13T01:21:12.666Z,81.1
2017-04-13T01:22:15.176Z,81.1
2017-04-13T01:23:17.826Z,81
2017-04-13T01:24:20.693Z,81
2017-04-13T01:25:23.043Z,81.6
2017-04-13T01:26:25.892Z,81.4
2017-04-13T01:27:28.568Z,81
2017-04-13T01:28:30.946Z,81
2017-04-13T01:29:33.809Z,81.7
2017-04-13T01:30:36.164Z,82.4
2017-04-13T01:31:39.015Z,82.4
2017-04-13T01:32:41.983Z,82.1
2017-04-13T01:34:46.739Z,80.5
2017-04-13T01:35:49.454Z,81.7
2017-04-13T01:36:52.242Z,81.7
2017-04-13T01:37:54.841Z,81.3
2017-04-13T01:38:57.692Z,81.5
2017-04-13T01:40:00.526Z,80.9
2017-04-13T01:41:02.869Z,80.5
2017-04-13T01:42:05.137Z,81.2
2017-04-13T01:44:11.143Z,81.5
2017-04-13T01:46:16.451Z,81
2017-04-13T01:47:18.810Z,80.6
2017-04-13T01:48:21.160Z,81.2
2017-04-13T01:49:24.312Z,81.3
2017-04-13T01:50:26.658Z,81.2
2017-04-13T01:51:29.003Z,80.8
2017-04-13T01:52:31.853Z,80.1
2017-04-13T01:53:34.707Z,80.7
2017-04-13T01:54:37.172Z,80.8
2017-04-13T01:55:39.515Z,80.9
2017-04-13T01:56:42.238Z,80.9
2017-04-13T01:57:45.088Z,81.5
2017-04-13T01:58:47.437Z,82.2
2017-04-13T01:59:50.590Z,82.1
2017-04-13T02:00:52.932Z,81.5
2017-04-13T02:01:55.512Z,81.7
2017-04-13T02:02:58.359Z,80.8
2017-04-13T02:04:00.704Z,81.5
2017-04-13T02:05:03.855Z,81.1
2017-04-13T02:06:06.262Z,80.7
2017-04-13T02:07:08.605Z,81
2017-04-13T02:08:11.457Z,81.4
2017-04-13T02:09:14.306Z,80.8
2017-04-13T02:10:16.951Z,80.9
2017-04-13T02:11:19.298Z,81.2
2017-04-13T02:12:22.154Z,81.1
2017-04-13T02:13:24.499Z,82
2017-04-13T02:14:27.210Z,81.7
2017-04-13T02:15:30.303Z,81.5
2017-04-13T02:16:32.644Z,81.6
2017-04-13T02:17:34.980Z,81.9
2017-04-13T02:18:37.880Z,81.8
2017-04-13T02:19:40.594Z,82.2
2017-04-13T02:20:43.239Z,82.4
2017-04-13T02:21:45.580Z,82.5
2017-04-13T02:22:48.291Z,82.5
2017-04-13T02:23:51.129Z,82.8
2017-04-13T02:24:53.473Z,83.2
2017-04-13T02:25:56.563Z,82.6
2017-04-13T02:26:58.902Z,83.2
2017-04-13T02:28:01.745Z,83.1
2017-04-13T02:29:04.132Z,83.3
2017-04-13T02:31:09.631Z,84
2017-04-13T02:32:11.969Z,84.3
2017-04-13T02:33:15.278Z,84.3
2017-04-13T02:34:17.117Z,84.4
2017-04-13T02:35:19.826Z,84.5
2017-04-13T02:36:22.971Z,84.4
2017-04-13T02:37:25.312Z,84.7
2017-04-13T02:38:27.654Z,84.5
2017-04-13T02:39:30.502Z,85
2017-04-13T02:40:33.346Z,84.6
2017-04-13T02:41:35.998Z,84.6
2017-04-13T02:42:38.341Z,84.7
2017-04-13T02:43:41.184Z,85.2
2017-04-13T02:44:43.523Z,85
2017-04-13T02:45:46.369Z,84.8
2017-04-13T02:46:49.521Z,84.6
2017-04-13T02:47:51.864Z,84.6
2017-04-13T02:48:54.281Z,84.6
2017-04-13T02:50:59.535Z,83.6
2017-04-13T02:52:02.632Z,82.8
2017-04-13T02:53:04.702Z,82.9
2017-04-13T02:54:07.549Z,83.5
2017-04-13T02:55:09.895Z,83.7
2017-04-13T02:56:12.742Z,82.6
2017-04-13T02:57:15.814Z,83.6
2017-04-13T02:58:18.151Z,83.6
2017-04-13T02:59:20.487Z,83.1
2017-04-13T03:00:23.329Z,82.2
2017-04-13T03:01:25.679Z,83.5
2017-04-13T03:02:29.391Z,83.5
2017-04-13T03:03:31.232Z,83.8
2017-04-13T03:04:33.575Z,83.9
2017-04-13T03:05:36.428Z,83.5
2017-04-13T03:06:39.270Z,83.4
2017-04-13T03:07:42.145Z,83.1
2017-04-13T03:08:45.051Z,83.5
2017-04-13T03:09:46.885Z,83.5
2017-04-13T03:10:49.728Z,83.6
2017-04-13T03:11:51.936Z,83.6
2017-04-13T03:12:55.093Z,84.1
2017-04-13T03:13:57.504Z,84.3
2017-04-13T03:16:02.758Z,84.5
2017-04-13T03:17:05.665Z,85
2017-04-13T03:18:08.306Z,83.9
2017-04-13T03:19:10.651Z,84.1
2017-04-13T03:20:13.492Z,83.3
2017-04-13T03:21:15.832Z,82.9
2017-04-13T03:22:18.678Z,84.1
2017-04-13T03:23:21.268Z,83.1
2017-04-13T03:24:23.615Z,83.1
2017-04-13T03:25:26.460Z,83.4
2017-04-13T03:26:29.306Z,84.2
2017-04-13T03:27:31.520Z,84.7
2017-04-13T03:29:37.572Z,84.5
2017-04-13T03:31:42.317Z,83.3
2017-04-13T03:32:45.168Z,84.3
2017-04-13T03:33:47.507Z,85
2017-04-13T03:35:53.468Z,84.9
2017-04-13T03:36:55.868Z,85
2017-04-13T03:37:58.211Z,86.1
2017-04-13T03:39:00.549Z,84.9
2017-04-13T03:40:03.256Z,85.9
2017-04-13T03:42:09.045Z,85.5
2017-04-13T03:44:13.657Z,86.1
2017-04-13T03:45:16.537Z,85.5
2017-04-13T03:46:19.256Z,86.1
2017-04-13T03:47:21.850Z,86.5
2017-04-13T03:49:27.150Z,87.4
2017-04-13T03:50:29.489Z,87.6
2017-04-13T03:51:32.202Z,87.3
2017-04-13T03:52:35.342Z,87.1
2017-04-13T03:55:42.995Z,87.9
2017-04-13T03:57:48.412Z,87.9
2017-04-13T03:58:50.750Z,87.7
2017-04-13T03:59:53.089Z,87.4
2017-04-13T04:00:55.935Z,87.6
2017-04-13T04:01:58.330Z,87.7
2017-04-13T04:03:01.486Z,88.2
2017-04-13T04:04:03.694Z,88.3
2017-04-13T04:05:06.542Z,88.7
2017-04-13T04:06:08.885Z,87.6
2017-04-13T04:07:12.292Z,87.7
2017-04-13T04:08:14.378Z,88.1
2017-04-13T04:09:17.086Z,88.5
2017-04-13T04:10:19.985Z,88.6
2017-04-13T04:11:22.330Z,88.3
2017-04-13T04:12:24.532Z,88.6
2017-04-13T04:13:27.540Z,88.9
2017-04-13T04:14:29.880Z,88.4
2017-04-13T04:15:32.722Z,88.9
2017-04-13T04:16:35.569Z,88.8
2017-04-13T04:17:37.911Z,89.1
2017-04-13T04:18:40.929Z,89.2
2017-04-13T04:19:43.267Z,88.7
2017-04-13T04:20:45.609Z,88.6
2017-04-13T04:21:48.457Z,88.2
2017-04-13T04:22:51.298Z,88.9
2017-04-13T04:23:53.941Z,88.5
2017-04-13T04:24:56.278Z,88.4
2017-04-13T04:25:59.117Z,88.2
2017-04-13T04:27:01.459Z,88.5
2017-04-13T04:28:04.306Z,88.9
2017-04-13T04:29:07.565Z,88.5
2017-04-13T04:30:09.403Z,88.8
2017-04-13T04:31:12.254Z,89
2017-04-13T04:32:14.595Z,89.1
2017-04-13T04:33:17.438Z,89.2
2017-04-13T04:34:20.032Z,89.6
2017-04-13T04:35:22.371Z,89.2
2017-04-13T04:36:25.218Z,89.2
2017-04-13T04:37:27.554Z,89.2
2017-04-13T04:38:30.258Z,87.9
2017-04-13T04:39:33.401Z,88.9
2017-04-13T04:40:35.805Z,88.6
2017-04-13T04:41:38.150Z,88.5
2017-04-13T04:42:40.717Z,88.5
2017-04-13T04:43:43.563Z,88
2017-04-13T04:44:46.205Z,88
2017-04-13T04:45:48.546Z,87.9
2017-04-13T04:46:51.390Z,87.4
2017-04-13T04:47:54.230Z,87.8
2017-04-13T04:48:56.570Z,85.7
2017-04-13T04:49:59.665Z,87.6
2017-04-13T04:51:02.011Z,87.6
2017-04-13T04:52:04.358Z,88
2017-04-13T04:53:07.207Z,87.5
2017-04-13T04:54:09.409Z,87.1
2017-04-13T04:55:12.510Z,87.9
2017-04-13T04:56:15.218Z,87.9
2017-04-13T04:57:17.558Z,88.2
2017-04-13T04:58:20.812Z,87.9
2017-04-13T04:59:22.647Z,88.4
2017-04-13T05:01:28.197Z,88.6
2017-04-13T05:02:30.547Z,87.9
2017-04-13T05:03:33.391Z,88
2017-04-13T05:04:35.733Z,88.2
2017-04-13T05:05:38.441Z,88.4
2017-04-13T05:06:41.534Z,88.6
2017-04-13T05:07:43.875Z,88.4
2017-04-13T05:08:46.217Z,88.4
2017-04-13T05:09:49.064Z,88.3
2017-04-13T05:10:51.909Z,88.8
2017-04-13T05:11:54.505Z,88.7
2017-04-13T05:12:56.584Z,89.1
2017-04-13T05:13:59.426Z,88.8
2017-04-13T05:16:04.734Z,88.7
2017-04-13T05:17:07.829Z,88.6
2017-04-13T05:18:10.167Z,88.6
2017-04-13T05:19:12.374Z,88.9
2017-04-13T05:20:15.221Z,88.4
2017-04-13T05:21:18.063Z,88.7
2017-04-13T05:22:20.708Z,88.7
2017-04-13T05:23:23.067Z,88.9
2017-04-13T05:24:25.909Z,88.9
2017-04-13T05:25:28.248Z,88.6
2017-04-13T05:26:31.098Z,88.7
2017-04-13T05:27:33.689Z,88.3
2017-04-13T05:28:35.892Z,88.6
2017-04-13T05:29:39.015Z,88.6
2017-04-13T05:30:41.359Z,88.6
2017-04-13T05:31:44.204Z,88.8
2017-04-13T05:32:46.798Z,88.1
2017-04-13T05:33:49.137Z,88.4
2017-04-13T05:34:52.021Z,88.2
2017-04-13T05:35:54.358Z,88.5
2017-04-13T05:36:57.200Z,88.3
2017-04-13T05:38:00.351Z,88.5
2017-04-13T05:39:02.190Z,88.3
2017-04-13T05:40:04.897Z,88.4
2017-04-13T05:41:07.474Z,87.9
2017-04-13T05:42:10.318Z,87.7
2017-04-13T05:43:13.019Z,87.2
2017-04-13T05:44:15.358Z,87.7
2017-04-13T05:46:20.619Z,87.9
2017-04-13T05:47:23.193Z,87.7
2017-04-13T05:48:26.339Z,88.1
2017-04-13T05:49:28.678Z,87.3
2017-04-13T05:50:31.023Z,87.7
2017-04-13T05:51:33.869Z,87.9
2017-04-13T05:52:36.581Z,87.9
2017-04-13T05:53:39.094Z,87.6
2017-04-13T05:54:41.979Z,87.1
2017-04-13T05:55:44.334Z,87.3
2017-04-13T05:56:47.110Z,87.4
2017-04-13T05:57:49.451Z,87.5
2017-04-13T05:58:52.608Z,87.3
2017-04-13T05:59:54.952Z,87
2017-04-13T06:00:57.168Z,87.4
2017-04-13T06:02:00.010Z,87.3
2017-04-13T06:03:02.852Z,87.2
2017-04-13T06:04:05.500Z,86.7
2017-04-13T06:05:07.841Z,86.9
2017-04-13T06:06:11.243Z,86.9
2017-04-13T06:07:13.083Z,86.9
2017-04-13T06:08:15.987Z,86.8
2017-04-13T06:09:18.637Z,86.8
2017-04-13T06:10:21.047Z,86.4
2017-04-13T06:11:23.892Z,85.7
2017-04-13T06:12:26.233Z,85.7
2017-04-13T06:13:29.079Z,86.2
2017-04-13T06:14:31.723Z,85.4
2017-04-13T06:15:33.929Z,85.8
2017-04-13T06:16:36.769Z,85.4
2017-04-13T06:17:39.310Z,84.4
2017-04-13T06:18:42.023Z,83.9
2017-04-13T06:19:45.167Z,84.2
2017-04-13T06:20:47.374Z,82.8
2017-04-13T06:21:49.715Z,82.8
2017-04-13T06:22:52.558Z,81.8
2017-04-13T06:23:55.274Z,82
2017-04-13T06:24:57.875Z,81.6
2017-04-13T06:27:03.129Z,80.2
2017-04-13T06:29:08.385Z,80
2017-04-13T06:30:11.028Z,76.4
2017-04-13T06:31:13.367Z,77.8
2017-04-13T06:32:16.214Z,77.3
2017-04-13T06:33:19.096Z,77.4
2017-04-13T06:34:21.437Z,75.5
2017-04-13T06:35:24.454Z,75.8
2017-04-13T06:36:26.794Z,75.8
2017-04-13T06:37:29.139Z,75.1
2017-04-13T06:38:31.980Z,74.8
2017-04-13T06:40:37.310Z,74.1
2017-04-13T06:41:40.089Z,72.7
2017-04-13T06:42:42.433Z,69.8
2017-04-13T06:43:45.278Z,69.3
2017-04-13T06:44:47.617Z,70.4
2017-04-13T06:45:50.763Z,70.7
2017-04-13T06:46:53.107Z,69.9
2017-04-13T06:47:55.449Z,70.8
2017-04-13T06:48:58.295Z,70.3
2017-04-13T06:50:01.139Z,71.2
2017-04-13T06:51:03.730Z,69.2
2017-04-13T06:52:06.070Z,68.4
2017-04-13T06:53:08.915Z,69.4
2017-04-13T06:54:11.257Z,68.3
2017-04-13T06:55:14.104Z,68.2
2017-04-13T06:56:17.258Z,68.4
2017-04-13T06:57:19.601Z,67.1
2017-04-13T06:58:21.945Z,67.6
2017-04-13T06:59:24.663Z,66.2
2017-04-13T07:00:27.513Z,68.1
2017-04-13T07:01:30.214Z,66.2
2017-04-13T07:02:32.565Z,68.1
2017-04-13T07:03:35.411Z,68.1
2017-04-13T07:04:37.622Z,69.5
2017-04-13T07:05:40.524Z,69.8
2017-04-13T07:06:43.541Z,69.3
2017-04-13T07:07:45.886Z,68.8
2017-04-13T07:08:48.226Z,69
2017-04-13T07:10:53.981Z,69.1
2017-04-13T07:11:56.629Z,69.4
2017-04-13T07:12:58.971Z,68.4
2017-04-13T07:14:01.818Z,70.9
2017-04-13T07:15:04.165Z,71.4
2017-04-13T07:16:07.009Z,71.5
2017-04-13T07:17:09.967Z,70.7
2017-04-13T07:18:12.307Z,69.6
2017-04-13T07:19:15.151Z,70.2
2017-04-13T07:20:17.492Z,68.7
2017-04-13T07:21:20.375Z,69.7
2017-04-13T07:22:23.020Z,68.8
2017-04-13T07:24:28.277Z,68.8
2017-04-13T07:25:30.622Z,69.9
2017-04-13T07:26:33.465Z,68.6
2017-04-13T07:27:36.111Z,68.3
2017-04-13T07:28:38.715Z,68.7
2017-04-13T07:29:41.565Z,67.8
2017-04-13T07:30:43.775Z,69.8
2017-04-13T07:31:46.485Z,70
2017-04-13T07:32:49.629Z,68.3
2017-04-13T07:33:51.972Z,68
2017-04-13T07:34:54.317Z,68.7
2017-04-13T07:35:57.025Z,67.7
2017-04-13T07:36:59.870Z,67.9
2017-04-13T07:38:02.522Z,68.4
2017-04-13T07:39:04.867Z,68.3
2017-04-13T07:40:07.712Z,68.1
2017-04-13T07:41:10.418Z,69.9
2017-04-13T07:43:15.647Z,68.5
2017-04-13T07:44:18.493Z,69.3
2017-04-13T07:45:20.836Z,68.4
2017-04-13T07:46:23.483Z,69
2017-04-13T07:47:26.882Z,70.8
2017-04-13T07:48:29.070Z,68.5
2017-04-13T07:49:31.416Z,69.8
2017-04-13T07:50:34.262Z,68.3
2017-04-13T07:51:36.975Z,69.4
2017-04-13T07:52:39.052Z,69.4
2017-04-13T07:53:42.514Z,70
2017-04-13T07:54:44.453Z,67.9
2017-04-13T07:55:47.031Z,69.2
2017-04-13T07:56:49.808Z,68.1
2017-04-13T07:57:52.379Z,69.1
2017-04-13T07:58:55.202Z,68
2017-04-13T07:59:58.047Z,66.9
2017-04-13T08:01:00.956Z,67.7
2017-04-13T08:02:03.163Z,66.8
2017-04-13T08:03:06.008Z,68.1
2017-04-13T08:04:08.654Z,67.5
2017-04-13T08:05:11.368Z,65.8
2017-04-13T08:06:13.709Z,67.2
2017-04-13T08:07:16.423Z,67.7
2017-04-13T08:08:19.135Z,67.4
2017-04-13T08:09:21.733Z,65.8
2017-04-13T08:10:24.583Z,66
2017-04-13T08:11:26.948Z,68
2017-04-13T08:12:29.664Z,68.3
2017-04-13T08:13:32.513Z,69
2017-04-13T08:14:35.025Z,66.3
2017-04-13T08:15:37.241Z,67.9
2017-04-13T08:16:40.185Z,68.8
2017-04-13T08:17:43.041Z,67.7
2017-04-13T08:18:45.756Z,68.2
2017-04-13T08:19:48.078Z,67.4
2017-04-13T08:20:50.924Z,67.7
2017-04-13T08:21:53.269Z,68.7
2017-04-13T08:22:56.678Z,64.3
2017-04-13T08:23:59.026Z,65.3
2017-04-13T08:25:01.675Z,64.5
2017-04-13T08:26:03.786Z,64.1
2017-04-13T08:27:06.357Z,66.3
2017-04-13T08:28:09.201Z,67.1
2017-04-13T08:29:12.051Z,65.8
2017-04-13T08:30:15.065Z,67.2
2017-04-13T08:31:17.404Z,66.8
2017-04-13T08:32:19.609Z,65.8
2017-04-13T08:33:22.821Z,65.7
2017-04-13T08:34:25.528Z,64.1
2017-04-13T08:35:28.118Z,65.8
2017-04-13T08:36:30.333Z,66.9
2017-04-13T08:38:36.098Z,67.4
2017-04-13T08:39:38.302Z,66.7
2017-04-13T08:40:41.264Z,67.7
2017-04-13T08:41:43.471Z,67.2
2017-04-13T08:42:46.687Z,65.9
2017-04-13T08:43:48.900Z,66.9
2017-04-13T08:44:51.806Z,67.6
2017-04-13T08:46:57.363Z,66.5
2017-04-13T08:47:59.701Z,67
2017-04-13T08:49:02.602Z,66.3
2017-04-13T08:50:04.810Z,68
2017-04-13T08:51:07.522Z,68.1
2017-04-13T08:52:10.666Z,66.5
2017-04-13T08:53:12.918Z,67
2017-04-13T08:54:15.763Z,66.2
2017-04-13T08:55:18.472Z,67.1
2017-04-13T08:56:20.678Z,66.4
2017-04-13T08:57:23.691Z,65.9
2017-04-13T08:58:26.034Z,67.1
2017-04-13T08:59:28.743Z,67.1
2017-04-13T09:00:31.318Z,66.9
2017-04-13T09:01:34.163Z,65.7
2017-04-13T09:02:37.128Z,66.1
2017-04-13T09:03:39.466Z,66.7
2017-04-13T09:04:42.305Z,67
2017-04-13T09:05:44.379Z,65.8
2017-04-13T09:06:47.329Z,63.9
2017-04-13T09:07:50.475Z,64.3
2017-04-13T09:08:52.816Z,66.5
2017-04-13T09:09:55.524Z,66.7
2017-04-13T09:10:57.867Z,65.7
2017-04-13T09:12:00.707Z,64
2017-04-13T09:13:03.404Z,64.9
2017-04-13T09:14:05.746Z,65.3
2017-04-13T09:15:08.458Z,63.8
2017-04-13T09:16:11.170Z,63.7
2017-04-13T09:17:13.747Z,61.6
2017-04-13T09:18:16.572Z,62.9
2017-04-13T09:19:18.912Z,61.3
2017-04-13T09:20:21.487Z,62.9
2017-04-13T09:21:24.333Z,62.9
2017-04-13T09:22:27.178Z,61.4
2017-04-13T09:23:29.641Z,62.4
2017-04-13T09:24:32.486Z,61.1
2017-04-13T09:25:34.824Z,61.5
2017-04-13T09:26:37.536Z,61.4
2017-04-13T09:27:40.380Z,60
2017-04-13T09:28:42.977Z,61.1
2017-04-13T09:29:45.821Z,60.9
2017-04-13T09:30:48.158Z,61.8
2017-04-13T09:31:50.871Z,59.9
2017-04-13T09:32:53.446Z,59.6
2017-04-13T09:33:56.591Z,59.6
2017-04-13T09:34:58.802Z,60.2
2017-04-13T09:36:01.647Z,62.3
2017-04-13T09:37:03.992Z,60.1
2017-04-13T09:38:06.700Z,61.5
2017-04-13T09:39:09.848Z,62.5
2017-04-13T09:40:12.193Z,58.8
2017-04-13T09:41:14.911Z,59.8
2017-04-13T09:42:17.256Z,59.9
2017-04-13T09:43:20.099Z,58.9
2017-04-13T09:44:22.927Z,60.9
2017-04-13T09:45:25.131Z,59.5
2017-04-13T09:46:27.840Z,58.8
2017-04-13T09:47:30.683Z,58.7
2017-04-13T09:49:36.292Z,57.7
2017-04-13T09:50:38.504Z,58.8
2017-04-13T09:51:41.346Z,59.5
2017-04-13T09:52:43.924Z,57.7
2017-04-13T09:54:49.486Z,59.2
2017-04-13T09:55:51.693Z,58.4
2017-04-13T09:56:54.540Z,57.4
2017-04-13T09:58:59.527Z,57.2
2017-04-13T10:00:02.665Z,57.6
2017-04-13T10:01:05.007Z,57.2
2017-04-13T10:02:07.719Z,57.1
2017-04-13T10:03:10.564Z,56.1
2017-04-13T10:04:13.278Z,58
2017-04-13T10:05:15.926Z,56
2017-04-13T10:06:18.268Z,57.8
2017-04-13T10:07:21.111Z,55.6
2017-04-13T10:08:23.447Z,55.3
2017-04-13T10:09:26.292Z,55.3
2017-04-13T10:10:29.301Z,55.2
2017-04-13T10:11:31.543Z,55.7
2017-04-13T10:12:34.391Z,56.1
2017-04-13T10:13:37.104Z,52.7
2017-04-13T10:14:39.449Z,54.5
2017-04-13T10:15:42.600Z,53.3
2017-04-13T10:16:44.811Z,52.1
2017-04-13T10:17:47.657Z,53
2017-04-13T10:18:50.557Z,52.7
2017-04-13T10:19:52.898Z,54
2017-04-13T10:20:56.053Z,51.3
2017-04-13T10:21:58.402Z,52.2
2017-04-13T10:23:00.610Z,53.2
2017-04-13T10:24:03.455Z,52.2
2017-04-13T10:25:06.296Z,54.6
2017-04-13T10:26:08.893Z,51.3
2017-04-13T10:27:11.235Z,50.8
2017-04-13T10:28:13.946Z,52.1
2017-04-13T10:29:16.658Z,52.7
2017-04-13T10:30:19.367Z,50.7
2017-04-13T10:31:22.513Z,51.7
2017-04-13T10:32:24.857Z,51.1
2017-04-13T10:33:27.568Z,52
2017-04-13T10:34:30.470Z,51
2017-04-13T10:35:32.857Z,50.2
2017-04-13T10:36:35.868Z,55.3
2017-04-13T10:37:38.075Z,53.5
2017-04-13T10:38:40.920Z,53
2017-04-13T10:39:43.269Z,52.5
2017-04-13T10:40:46.123Z,51.9
2017-04-13T10:41:48.726Z,53.6
2017-04-13T10:42:51.437Z,52
2017-04-13T10:43:54.144Z,51.4
2017-04-13T10:44:56.864Z,50.8
2017-04-13T10:45:59.575Z,52.6
2017-04-13T10:47:02.221Z,51.3
2017-04-13T10:48:04.431Z,52.3
2017-04-13T10:49:07.147Z,54
2017-04-13T10:50:09.856Z,51.6
2017-04-13T10:51:12.436Z,51.6
2017-04-13T10:53:18.304Z,53
2017-04-13T10:54:20.643Z,51.3
2017-04-13T10:55:23.353Z,52.6
2017-04-13T10:56:26.069Z,50
2017-04-13T10:57:28.409Z,51.6
2017-04-13T10:58:31.421Z,47.4
2017-04-13T10:59:33.622Z,50.8
2017-04-13T11:00:36.330Z,51.3
2017-04-13T11:02:42.082Z,49.4
2017-04-13T11:03:45.091Z,47.9
2017-04-13T11:04:47.440Z,49.7
2017-04-13T11:05:50.017Z,48.9
2017-04-13T11:06:52.858Z,49.7
2017-04-13T11:07:55.070Z,48.9
2017-04-13T11:08:58.035Z,49.4
2017-04-13T11:10:00.747Z,51.9
2017-04-13T11:11:03.455Z,50.3
2017-04-13T11:12:05.668Z,52.3
2017-04-13T11:13:08.380Z,51
2017-04-13T11:14:11.340Z,49.5
2017-04-13T11:15:13.980Z,50.3
2017-04-13T11:16:16.820Z,50.1
2017-04-13T11:17:19.170Z,49.9
2017-04-13T11:18:22.011Z,51.1
2017-04-13T11:19:24.893Z,51.9
2017-04-13T11:20:27.102Z,50.6
2017-04-13T11:21:30.388Z,50.3
2017-04-13T11:22:32.589Z,52.6
2017-04-13T11:23:35.300Z,53.3
2017-04-13T11:24:38.450Z,50.3
2017-04-13T11:25:40.655Z,51.6
2017-04-13T11:26:43.500Z,52.5
2017-04-13T11:27:45.708Z,51
2017-04-13T11:28:48.548Z,51.7
2017-04-13T11:29:51.565Z,51.6
2017-04-13T11:30:53.906Z,52.7
2017-04-13T11:31:56.747Z,51.4
2017-04-13T11:32:59.454Z,51.3
2017-04-13T11:35:05.084Z,53.5
2017-04-13T11:36:07.292Z,53.1
2017-04-13T11:37:09.869Z,53.2
2017-04-13T11:38:13.350Z,52.6
2017-04-13T11:39:15.188Z,52.7
2017-04-13T11:40:18.203Z,52.7
2017-04-13T11:41:21.112Z,52.3
2017-04-13T11:42:23.323Z,53.7
2017-04-13T11:43:25.661Z,53.1
2017-04-13T11:44:28.503Z,53
2017-04-13T11:45:31.520Z,54.9
2017-04-13T11:46:33.732Z,55.6
2017-04-13T11:47:36.578Z,55.3
2017-04-13T11:48:39.288Z,53.9
2017-04-13T11:49:42.132Z,55.4
2017-04-13T11:50:44.641Z,55.5
2017-04-13T11:51:46.978Z,56.7
2017-04-13T11:52:49.823Z,55.6
2017-04-13T11:54:55.443Z,54.4
2017-04-13T11:55:57.953Z,52.7
2017-04-13T11:57:00.796Z,53.6
2017-04-13T11:58:03.147Z,53.3
2017-04-13T11:59:06.423Z,54.2
2017-04-13T12:00:08.195Z,54.4
2017-04-13T12:01:11.386Z,54.3
2017-04-13T12:03:16.506Z,54.3
2017-04-13T12:04:19.348Z,55.4
2017-04-13T12:05:21.558Z,55.4
2017-04-13T12:06:24.892Z,53.3
2017-04-13T12:07:27.239Z,55.1
2017-04-13T12:08:30.086Z,53.2
2017-04-13T12:09:32.439Z,55.6
2017-04-13T12:10:35.290Z,55.1
2017-04-13T12:11:37.985Z,55.5
2017-04-13T12:12:40.325Z,55.3
2017-04-13T12:13:43.035Z,56.5
2017-04-13T12:14:45.942Z,55.6
2017-04-13T12:16:51.498Z,56.5
2017-04-13T12:17:53.839Z,56.4
2017-04-13T12:18:56.555Z,55.6
2017-04-13T12:19:59.397Z,56.7
2017-04-13T12:21:01.738Z,56.1
2017-04-13T12:22:04.893Z,56.2
2017-04-13T12:23:07.244Z,55.5
2017-04-13T12:24:09.953Z,57.3
2017-04-13T12:25:12.297Z,56.1
2017-04-13T12:26:15.062Z,54.4
2017-04-13T12:27:18.214Z,55.7
2017-04-13T12:28:20.415Z,55.9
2017-04-13T12:29:23.131Z,55.9
2017-04-13T12:30:26.543Z,56
2017-04-13T12:31:28.383Z,55.8
2017-04-13T12:32:31.396Z,57
2017-04-13T12:33:33.733Z,57.2
2017-04-13T12:34:36.580Z,57.3
2017-04-13T12:35:39.430Z,56.8
2017-04-13T12:36:41.771Z,56.7
2017-04-13T12:37:44.735Z,57
2017-04-13T12:38:47.445Z,56.1
2017-04-13T12:39:49.787Z,54.8
2017-04-13T12:40:52.498Z,55.8
2017-04-13T12:41:55.401Z,57.5
2017-04-13T12:42:58.415Z,56.8
2017-04-13T12:44:00.761Z,56.5
2017-04-13T12:45:03.340Z,56.1
2017-04-13T12:46:05.743Z,55.2
2017-04-13T12:47:08.586Z,55.3
2017-04-13T12:48:11.735Z,56.4
2017-04-13T12:50:16.483Z,55.9
2017-04-13T12:51:19.057Z,56.8
2017-04-13T12:52:21.765Z,58.3
2017-04-13T12:53:24.922Z,60.5
2017-04-13T12:54:27.134Z,63.1
2017-04-13T12:55:29.981Z,62.6
2017-04-13T12:56:32.822Z,66.3
2017-04-13T12:57:35.027Z,68.1
2017-04-13T12:58:38.177Z,68.6
2017-04-13T12:59:40.390Z,71
2017-04-13T13:00:43.237Z,72.7
2017-04-13T13:01:45.947Z,73.4
2017-04-13T13:02:48.530Z,75.4
2017-04-13T13:03:51.678Z,77.4
2017-04-13T13:04:54.020Z,80.3
2017-04-13T13:05:56.428Z,79.2
2017-04-13T13:06:59.009Z,80.5
2017-04-13T13:08:01.855Z,80.6
2017-04-13T13:09:05.012Z,80.7
2017-04-13T13:10:07.354Z,81.7
2017-04-13T13:11:10.064Z,81.3
2017-04-13T13:12:12.272Z,81.8
2017-04-13T13:13:15.677Z,81.8
2017-04-13T13:14:18.330Z,82.1
2017-04-13T13:16:23.081Z,81.1
2017-04-13T13:17:25.797Z,80.5
2017-04-13T13:18:28.239Z,80.8
2017-04-13T13:19:31.340Z,82
2017-04-13T13:20:33.686Z,79.8
2017-04-13T13:21:36.539Z,80.3
2017-04-13T13:22:38.939Z,81.4
2017-04-13T13:23:41.783Z,82
2017-04-13T13:24:44.372Z,80.7
2017-04-13T13:25:47.087Z,82.3
2017-04-13T13:26:49.430Z,81.5
2017-04-13T13:27:52.137Z,78.4
2017-04-13T13:28:54.983Z,80.1
2017-04-13T13:29:57.625Z,78.5
2017-04-13T13:30:59.968Z,80.3
2017-04-13T13:32:02.819Z,77.9
2017-04-13T13:33:05.671Z,79.4
2017-04-13T13:34:08.015Z,80.7
2017-04-13T13:35:11.111Z,79.7
2017-04-13T13:36:13.322Z,79.2
2017-04-13T13:37:15.958Z,78.1
2017-04-13T13:38:18.806Z,78.1
2017-04-13T13:39:21.520Z,77.4
2017-04-13T13:40:24.115Z,76.7
2017-04-13T13:41:26.457Z,77.4
2017-04-13T13:42:29.206Z,76.9
2017-04-13T13:43:32.054Z,75.6
2017-04-13T13:44:35.329Z,75.5
2017-04-13T13:45:37.289Z,76.2
2017-04-13T13:46:40.003Z,76.6
2017-04-13T13:47:42.341Z,77.1
2017-04-13T13:48:45.181Z,76.6
2017-04-13T13:49:48.026Z,74
2017-04-13T13:50:50.589Z,74.9
2017-04-13T13:51:52.927Z,74.4
2017-04-13T13:52:55.507Z,75
2017-04-13T13:53:58.263Z,74.9
2017-04-13T13:55:01.115Z,75.7
2017-04-13T13:56:04.207Z,74
2017-04-13T13:57:06.414Z,74.1
2017-04-13T13:58:09.119Z,75.3
2017-04-13T13:59:11.833Z,74.1
2017-04-13T14:00:14.553Z,72.7
2017-04-13T14:01:17.204Z,73.6
2017-04-13T14:02:19.410Z,73.6
2017-04-13T14:03:22.114Z,73
2017-04-13T14:04:24.955Z,69.8
2017-04-13T14:05:27.666Z,72.6
2017-04-13T14:06:30.772Z,72.2
2017-04-13T14:07:33.111Z,72.2
2017-04-13T14:08:35.448Z,74
2017-04-13T14:09:38.159Z,72.8
2017-04-13T14:10:40.873Z,73.2
2017-04-13T14:11:44.024Z,73.2
2017-04-13T14:12:46.375Z,72.9
2017-04-13T14:13:48.952Z,72.5
2017-04-13T14:14:51.292Z,71.8
2017-04-13T14:15:54.136Z,71.3
2017-04-13T14:16:57.147Z,72
2017-04-13T14:17:59.504Z,72.1
2017-04-13T14:19:02.211Z,73.6
2017-04-13T14:20:04.553Z,73.2
2017-04-13T14:21:07.406Z,73.7
2017-04-13T14:22:10.419Z,73.3
2017-04-13T14:23:12.625Z,73.2
2017-04-13T14:24:15.206Z,74.2
2017-04-13T14:25:18.051Z,74.3
2017-04-13T14:26:20.902Z,74.6
2017-04-13T14:27:23.548Z,74.6
2017-04-13T14:28:25.890Z,74.6
2017-04-13T14:29:28.602Z,74.4
2017-04-13T14:30:31.443Z,74.3
2017-04-13T14:31:33.719Z,73.2
2017-04-13T14:32:36.867Z,74.6
2017-04-13T14:33:39.219Z,74.5
2017-04-13T14:34:42.066Z,74.9
2017-04-13T14:35:44.408Z,74.5
2017-04-13T14:36:47.492Z,75.5
2017-04-13T14:37:50.086Z,74.9
2017-04-13T14:38:52.662Z,75.6
2017-04-13T14:39:55.374Z,74
2017-04-13T14:40:58.090Z,74.4
2017-04-13T14:42:00.431Z,73.4